Terminal Aerodrome Forecast
Issued by NWS

Home | Current Version | Previous Version | Text Only | Print | Product List | Glossary On
Versions: 1 2 3 4 5 6 7 8 9 10 11 12 13 14 15 16 17 18 19 20 21 22 23 24 25
000
FTUS41 KOKX 040108 AAA
TAFSWF
TAF AMD
KSWF 040108Z 0401/0506 23005KT P6SM SCT050 BKN100
     FM040400 25004KT 5SM BR SCT050 BKN100
      TEMPO 0405/0408 3SM TSRA SCT030CB BKN050
     FM040800 VRB04KT 5SM BR SCT050 SCT100
     FM041100 26008KT P6SM SCT050 SCT100
     FM041600 28014G22KT P6SM BKN050
     FM050200 28008KT P6SM SCT050 SCT100
      AMD NOT SKED=

USA.gov is the U.S. government's official web portal to all federal, state and local government web resources and services.